sensor_id;sensor_type;location;lat;lon;timestamp;temperature;humidity
24091;DHT22;12272;52.426;17.100;2023-05-03T00:01:35;9.70;92.60
24091;DHT22;12272;52.426;17.100;2023-05-03T00:06:38;9.60;93.00
24091;DHT22;12272;52.426;17.100;2023-05-03T00:11:41;9.50;93.10
24091;DHT22;12272;52.426;17.100;2023-05-03T00:16:43;9.50;93.30
24091;DHT22;12272;52.426;17.100;2023-05-03T00:21:46;9.50;92.60
24091;DHT22;12272;52.426;17.100;2023-05-03T00:26:48;9.40;92.70
24091;DHT22;12272;52.426;17.100;2023-05-03T00:31:51;9.40;92.60
24091;DHT22;12272;52.426;17.100;2023-05-03T00:36:53;9.40;93.10
24091;DHT22;12272;52.426;17.100;2023-05-03T00:41:57;9.30;90.90
24091;DHT22;12272;52.426;17.100;2023-05-03T00:47:00;9.20;91.40
24091;DHT22;12272;52.426;17.100;2023-05-03T00:52:04;9.10;91.90
24091;DHT22;12272;52.426;17.100;2023-05-03T00:57:07;8.90;91.40
24091;DHT22;12272;52.426;17.100;2023-05-03T01:02:10;8.50;91.70
24091;DHT22;12272;52.426;17.100;2023-05-03T01:07:39;8.50;91.80
24091;DHT22;12272;52.426;17.100;2023-05-03T01:17:52;7.80;93.90
24091;DHT22;12272;52.426;17.100;2023-05-03T01:23:04;7.20;96.30
24091;DHT22;12272;52.426;17.100;2023-05-03T01:28:07;7.20;96.50
24091;DHT22;12272;52.426;17.100;2023-05-03T01:33:18;6.90;97.60
24091;DHT22;12272;52.426;17.100;2023-05-03T01:38:23;6.60;99.90
24091;DHT22;12272;52.426;17.100;2023-05-03T01:43:26;6.40;99.90
24091;DHT22;12272;52.426;17.100;2023-05-03T01:48:32;6.80;99.90
24091;DHT22;12272;52.426;17.100;2023-05-03T01:53:35;6.80;99.90
24091;DHT22;12272;52.426;17.100;2023-05-03T01:58:38;6.90;99.90
24091;DHT22;12272;52.426;17.100;2023-05-03T02:03:41;6.60;99.90
24091;DHT22;12272;52.426;17.100;2023-05-03T02:08:44;6.40;99.90
24091;DHT22;12272;52.426;17.100;2023-05-03T02:13:48;6.20;99.90
24091;DHT22;12272;52.426;17.100;2023-05-03T02:18:54;6.00;99.90
24091;DHT22;12272;52.426;17.100;2023-05-03T02:24:00;5.90;99.90
24091;DHT22;12272;52.426;17.100;2023-05-03T02:29:03;5.90;99.90
24091;DHT22;12272;52.426;17.100;2023-05-03T02:34:08;5.70;99.90
24091;DHT22;12272;52.426;17.100;2023-05-03T02:39:11;5.90;99.90
24091;DHT22;12272;52.426;17.100;2023-05-03T02:44:13;5.80;99.90
24091;DHT22;12272;52.426;17.100;2023-05-03T02:49:16;5.90;99.90
24091;DHT22;12272;52.426;17.100;2023-05-03T02:54:19;5.90;99.90
24091;DHT22;12272;52.426;17.100;2023-05-03T02:59:22;5.70;99.90
24091;DHT22;12272;52.426;17.100;2023-05-03T03:04:25;5.90;99.90
24091;DHT22;12272;52.426;17.100;2023-05-03T03:09:28;6.20;99.90
24091;DHT22;12272;52.426;17.100;2023-05-03T03:14:30;6.20;99.90
24091;DHT22;12272;52.426;17.100;2023-05-03T03:19:33;6.20;99.90
24091;DHT22;12272;52.426;17.100;2023-05-03T03:24:36;6.20;99.90
24091;DHT22;12272;52.426;17.100;2023-05-03T03:29:38;6.10;99.90
24091;DHT22;12272;52.426;17.100;2023-05-03T03:34:42;6.00;99.90
24091;DHT22;12272;52.426;17.100;2023-05-03T03:39:46;5.90;99.90
24091;DHT22;12272;52.426;17.100;2023-05-03T03:44:49;6.00;99.90
24091;DHT22;12272;52.426;17.100;2023-05-03T03:49:52;6.10;99.90
24091;DHT22;12272;52.426;17.100;2023-05-03T03:54:55;6.20;99.90
24091;DHT22;12272;52.426;17.100;2023-05-03T03:59:58;6.20;99.90
24091;DHT22;12272;52.426;17.100;2023-05-03T04:05:02;6.30;99.90
24091;DHT22;12272;52.426;17.100;2023-05-03T04:10:07;6.40;99.90
24091;DHT22;12272;52.426;17.100;2023-05-03T04:15:12;6.50;99.90
24091;DHT22;12272;52.426;17.100;2023-05-03T04:20:15;6.70;99.90
24091;DHT22;12272;52.426;17.100;2023-05-03T04:25:22;6.80;99.90
24091;DHT22;12272;52.426;17.100;2023-05-03T04:30:33;6.90;99.90
24091;DHT22;12272;52.426;17.100;2023-05-03T04:35:37;7.10;99.90
24091;DHT22;12272;52.426;17.100;2023-05-03T04:40:44;7.20;99.90
24091;DHT22;12272;52.426;17.100;2023-05-03T04:45:48;7.40;99.90
24091;DHT22;12272;52.426;17.100;2023-05-03T04:50:55;7.60;99.90
24091;DHT22;12272;52.426;17.100;2023-05-03T04:55:58;7.90;99.90
24091;DHT22;12272;52.426;17.100;2023-05-03T05:01:01;8.30;99.90
24091;DHT22;12272;52.426;17.100;2023-05-03T05:06:05;8.70;99.90
24091;DHT22;12272;52.426;17.100;2023-05-03T05:11:13;8.80;99.90
24091;DHT22;12272;52.426;17.100;2023-05-03T05:16:16;9.10;99.90
24091;DHT22;12272;52.426;17.100;2023-05-03T05:21:24;9.30;97.70
24091;DHT22;12272;52.426;17.100;2023-05-03T05:26:28;9.50;99.90
24091;DHT22;12272;52.426;17.100;2023-05-03T05:31:31;9.90;99.90
24091;DHT22;12272;52.426;17.100;2023-05-03T05:36:33;10.10;99.90
24091;DHT22;12272;52.426;17.100;2023-05-03T05:41:36;10.30;96.50
24091;DHT22;12272;52.426;17.100;2023-05-03T05:46:39;10.60;99.90
24091;DHT22;12272;52.426;17.100;2023-05-03T05:51:43;11.50;99.90
24091;DHT22;12272;52.426;17.100;2023-05-03T05:56:46;11.70;98.80
24091;DHT22;12272;52.426;17.100;2023-05-03T06:01:49;12.20;96.30
24091;DHT22;12272;52.426;17.100;2023-05-03T06:06:54;12.00;93.60
24091;DHT22;12272;52.426;17.100;2023-05-03T06:11:57;12.20;95.90
24091;DHT22;12272;52.426;17.100;2023-05-03T06:17:02;12.00;90.90
24091;DHT22;12272;52.426;17.100;2023-05-03T06:22:05;11.90;88.50
24091;DHT22;12272;52.426;17.100;2023-05-03T06:27:09;12.00;90.70
24091;DHT22;12272;52.426;17.100;2023-05-03T06:32:12;11.80;85.30
24091;DHT22;12272;52.426;17.100;2023-05-03T06:37:16;11.80;86.50
24091;DHT22;12272;52.426;17.100;2023-05-03T06:42:19;11.70;87.30
24091;DHT22;12272;52.426;17.100;2023-05-03T06:47:22;11.50;88.70
24091;DHT22;12272;52.426;17.100;2023-05-03T06:52:24;12.20;94.30
24091;DHT22;12272;52.426;17.100;2023-05-03T06:57:28;12.30;92.20
24091;DHT22;12272;52.426;17.100;2023-05-03T07:02:30;11.80;85.00
24091;DHT22;12272;52.426;17.100;2023-05-03T07:07:33;12.10;95.00
24091;DHT22;12272;52.426;17.100;2023-05-03T07:12:35;12.00;83.50
24091;DHT22;12272;52.426;17.100;2023-05-03T07:17:38;11.60;79.90
24091;DHT22;12272;52.426;17.100;2023-05-03T07:22:40;11.70;91.10
24091;DHT22;12272;52.426;17.100;2023-05-03T07:27:43;12.10;82.40
24091;DHT22;12272;52.426;17.100;2023-05-03T07:32:45;12.20;90.00
24091;DHT22;12272;52.426;17.100;2023-05-03T07:37:48;12.40;78.90
24091;DHT22;12272;52.426;17.100;2023-05-03T07:42:51;12.60;78.60
24091;DHT22;12272;52.426;17.100;2023-05-03T07:47:55;13.20;74.90
24091;DHT22;12272;52.426;17.100;2023-05-03T07:53:00;13.60;82.40
24091;DHT22;12272;52.426;17.100;2023-05-03T07:58:03;13.50;51.20
24091;DHT22;12272;52.426;17.100;2023-05-03T08:03:06;13.20;48.70
24091;DHT22;12272;52.426;17.100;2023-05-03T08:08:09;13.10;45.20
24091;DHT22;12272;52.426;17.100;2023-05-03T08:13:11;13.50;81.00
24091;DHT22;12272;52.426;17.100;2023-05-03T08:18:14;13.60;70.70
24091;DHT22;12272;52.426;17.100;2023-05-03T08:23:16;13.20;52.70
24091;DHT22;12272;52.426;17.100;2023-05-03T08:28:19;13.40;72.40
24091;DHT22;12272;52.426;17.100;2023-05-03T08:33:21;13.80;72.60
24091;DHT22;12272;52.426;17.100;2023-05-03T08:38:24;14.10;36.20
24091;DHT22;12272;52.426;17.100;2023-05-03T08:43:27;14.20;45.90
24091;DHT22;12272;52.426;17.100;2023-05-03T08:48:31;14.60;38.20
24091;DHT22;12272;52.426;17.100;2023-05-03T08:53:34;14.70;28.20
24091;DHT22;12272;52.426;17.100;2023-05-03T08:58:37;14.50;53.60
24091;DHT22;12272;52.426;17.100;2023-05-03T09:03:47;14.50;47.80
24091;DHT22;12272;52.426;17.100;2023-05-03T09:08:51;14.90;64.30
24091;DHT22;12272;52.426;17.100;2023-05-03T09:14:13;14.90;31.30
24091;DHT22;12272;52.426;17.100;2023-05-03T09:19:16;14.40;28.90
24091;DHT22;12272;52.426;17.100;2023-05-03T09:24:22;13.90;28.30
24091;DHT22;12272;52.426;17.100;2023-05-03T09:29:31;13.70;24.30
24091;DHT22;12272;52.426;17.100;2023-05-03T09:34:35;13.70;25.70
24091;DHT22;12272;52.426;17.100;2023-05-03T09:39:44;14.00;23.90
24091;DHT22;12272;52.426;17.100;2023-05-03T09:44:48;14.70;33.10
24091;DHT22;12272;52.426;17.100;2023-05-03T09:49:53;15.20;38.60
24091;DHT22;12272;52.426;17.100;2023-05-03T09:54:56;15.10;25.00
24091;DHT22;12272;52.426;17.100;2023-05-03T09:59:59;15.00;28.80
24091;DHT22;12272;52.426;17.100;2023-05-03T10:05:02;14.90;31.80
24091;DHT22;12272;52.426;17.100;2023-05-03T10:10:07;14.70;43.40
24091;DHT22;12272;52.426;17.100;2023-05-03T10:15:12;14.50;26.00
24091;DHT22;12272;52.426;17.100;2023-05-03T10:20:42;14.90;32.50
24091;DHT22;12272;52.426;17.100;2023-05-03T10:31:42;15.40;27.60
24091;DHT22;12272;52.426;17.100;2023-05-03T10:36:46;15.00;30.60
24091;DHT22;12272;52.426;17.100;2023-05-03T10:42:02;15.10;22.00
24091;DHT22;12272;52.426;17.100;2023-05-03T10:47:19;15.10;23.80
24091;DHT22;12272;52.426;17.100;2023-05-03T10:57:43;15.00;24.90
24091;DHT22;12272;52.426;17.100;2023-05-03T11:08:23;15.80;22.70
24091;DHT22;12272;52.426;17.100;2023-05-03T11:13:31;16.10;25.20
24091;DHT22;12272;52.426;17.100;2023-05-03T11:18:34;16.30;29.00
24091;DHT22;12272;52.426;17.100;2023-05-03T11:23:38;16.00;21.30
24091;DHT22;12272;52.426;17.100;2023-05-03T11:28:41;15.50;20.50
24091;DHT22;12272;52.426;17.100;2023-05-03T11:33:44;15.10;22.00
24091;DHT22;12272;52.426;17.100;2023-05-03T11:38:49;14.80;22.90
24091;DHT22;12272;52.426;17.100;2023-05-03T11:43:51;14.60;26.80
24091;DHT22;12272;52.426;17.100;2023-05-03T11:49:17;14.50;21.30
24091;DHT22;12272;52.426;17.100;2023-05-03T11:54:22;14.80;25.00
24091;DHT22;12272;52.426;17.100;2023-05-03T11:59:36;15.00;20.60
24091;DHT22;12272;52.426;17.100;2023-05-03T12:04:41;15.30;19.50
24091;DHT22;12272;52.426;17.100;2023-05-03T12:09:47;15.50;19.70
24091;DHT22;12272;52.426;17.100;2023-05-03T12:15:10;15.90;39.80
24091;DHT22;12272;52.426;17.100;2023-05-03T12:20:21;16.30;39.60
24091;DHT22;12272;52.426;17.100;2023-05-03T12:25:28;16.30;38.20
24091;DHT22;12272;52.426;17.100;2023-05-03T12:30:35;16.40;32.70
24091;DHT22;12272;52.426;17.100;2023-05-03T12:35:42;16.00;22.90
24091;DHT22;12272;52.426;17.100;2023-05-03T12:40:49;15.60;25.90
24091;DHT22;12272;52.426;17.100;2023-05-03T12:45:51;15.80;24.10
24091;DHT22;12272;52.426;17.100;2023-05-03T12:51:14;16.00;30.50
24091;DHT22;12272;52.426;17.100;2023-05-03T12:56:19;16.20;30.00
24091;DHT22;12272;52.426;17.100;2023-05-03T13:01:26;16.20;36.10
24091;DHT22;12272;52.426;17.100;2023-05-03T13:06:33;16.10;24.10
24091;DHT22;12272;52.426;17.100;2023-05-03T13:11:45;15.90;21.10
24091;DHT22;12272;52.426;17.100;2023-05-03T13:16:50;16.10;28.60
24091;DHT22;12272;52.426;17.100;2023-05-03T13:21:53;16.10;20.50
24091;DHT22;12272;52.426;17.100;2023-05-03T13:26:56;16.00;25.00
24091;DHT22;12272;52.426;17.100;2023-05-03T13:31:58;15.90;28.20
24091;DHT22;12272;52.426;17.100;2023-05-03T13:37:01;15.60;24.30
24091;DHT22;12272;52.426;17.100;2023-05-03T13:42:03;15.30;22.70
24091;DHT22;12272;52.426;17.100;2023-05-03T13:47:06;15.40;19.70
24091;DHT22;12272;52.426;17.100;2023-05-03T13:52:09;15.50;28.10
24091;DHT22;12272;52.426;17.100;2023-05-03T13:57:12;15.80;25.20
24091;DHT22;12272;52.426;17.100;2023-05-03T14:02:14;16.10;22.30
24091;DHT22;12272;52.426;17.100;2023-05-03T14:07:17;16.20;24.00
24091;DHT22;12272;52.426;17.100;2023-05-03T14:12:20;16.70;22.20
24091;DHT22;12272;52.426;17.100;2023-05-03T14:17:22;16.70;19.70
24091;DHT22;12272;52.426;17.100;2023-05-03T14:22:25;16.50;22.80
24091;DHT22;12272;52.426;17.100;2023-05-03T14:27:28;16.40;19.80
24091;DHT22;12272;52.426;17.100;2023-05-03T14:32:31;16.30;20.30
24091;DHT22;12272;52.426;17.100;2023-05-03T14:37:34;15.90;19.00
24091;DHT22;12272;52.426;17.100;2023-05-03T14:42:38;15.50;19.90
24091;DHT22;12272;52.426;17.100;2023-05-03T14:47:40;15.40;17.90
24091;DHT22;12272;52.426;17.100;2023-05-03T14:52:44;15.30;18.40
24091;DHT22;12272;52.426;17.100;2023-05-03T14:57:46;15.60;20.40
24091;DHT22;12272;52.426;17.100;2023-05-03T15:02:51;15.90;19.60
24091;DHT22;12272;52.426;17.100;2023-05-03T15:07:56;16.30;29.20
24091;DHT22;12272;52.426;17.100;2023-05-03T15:13:00;16.40;27.60
24091;DHT22;12272;52.426;17.100;2023-05-03T15:18:03;16.30;16.90
24091;DHT22;12272;52.426;17.100;2023-05-03T15:23:06;16.10;22.60
24091;DHT22;12272;52.426;17.100;2023-05-03T15:28:09;16.30;30.90
24091;DHT22;12272;52.426;17.100;2023-05-03T15:33:12;16.40;30.20
24091;DHT22;12272;52.426;17.100;2023-05-03T15:38:15;16.40;33.00
24091;DHT22;12272;52.426;17.100;2023-05-03T15:43:19;16.20;21.20
24091;DHT22;12272;52.426;17.100;2023-05-03T15:48:21;16.30;31.80
24091;DHT22;12272;52.426;17.100;2023-05-03T15:53:25;16.00;22.40
24091;DHT22;12272;52.426;17.100;2023-05-03T15:58:28;16.10;33.00
24091;DHT22;12272;52.426;17.100;2023-05-03T16:03:31;16.30;41.20
24091;DHT22;12272;52.426;17.100;2023-05-03T16:08:34;16.20;33.10
24091;DHT22;12272;52.426;17.100;2023-05-03T16:13:37;15.80;22.70
24091;DHT22;12272;52.426;17.100;2023-05-03T16:18:39;15.60;28.20
24091;DHT22;12272;52.426;17.100;2023-05-03T16:23:41;15.60;30.30
24091;DHT22;12272;52.426;17.100;2023-05-03T16:28:44;15.90;39.10
24091;DHT22;12272;52.426;17.100;2023-05-03T16:33:49;16.10;39.60
24091;DHT22;12272;52.426;17.100;2023-05-03T16:38:51;16.10;31.90
24091;DHT22;12272;52.426;17.100;2023-05-03T16:43:54;15.90;30.00
24091;DHT22;12272;52.426;17.100;2023-05-03T16:48:57;16.00;27.10
24091;DHT22;12272;52.426;17.100;2023-05-03T16:53:59;16.00;38.40
24091;DHT22;12272;52.426;17.100;2023-05-03T16:59:05;16.10;29.20
24091;DHT22;12272;52.426;17.100;2023-05-03T17:04:08;15.50;19.40
24091;DHT22;12272;52.426;17.100;2023-05-03T17:09:11;15.50;30.70
24091;DHT22;12272;52.426;17.100;2023-05-03T17:14:14;15.30;23.80
24091;DHT22;12272;52.426;17.100;2023-05-03T17:19:17;15.10;21.50
24091;DHT22;12272;52.426;17.100;2023-05-03T17:24:19;15.00;23.00
24091;DHT22;12272;52.426;17.100;2023-05-03T17:29:22;14.60;22.10
24091;DHT22;12272;52.426;17.100;2023-05-03T17:34:24;14.10;26.50
24091;DHT22;12272;52.426;17.100;2023-05-03T17:39:27;13.60;29.30
24091;DHT22;12272;52.426;17.100;2023-05-03T17:44:29;13.20;30.20
24091;DHT22;12272;52.426;17.100;2023-05-03T17:49:32;12.90;30.90
24091;DHT22;12272;52.426;17.100;2023-05-03T17:54:35;12.50;32.00
24091;DHT22;12272;52.426;17.100;2023-05-03T17:59:37;12.10;35.50
24091;DHT22;12272;52.426;17.100;2023-05-03T18:04:40;11.70;35.70
24091;DHT22;12272;52.426;17.100;2023-05-03T18:09:42;11.20;36.60
24091;DHT22;12272;52.426;17.100;2023-05-03T18:14:45;11.10;36.60
24091;DHT22;12272;52.426;17.100;2023-05-03T18:19:48;10.80;35.90
24091;DHT22;12272;52.426;17.100;2023-05-03T18:24:54;10.40;43.80
24091;DHT22;12272;52.426;17.100;2023-05-03T18:29:56;10.30;45.90
24091;DHT22;12272;52.426;17.100;2023-05-03T18:34:59;9.90;55.40
24091;DHT22;12272;52.426;17.100;2023-05-03T18:40:02;9.50;63.00
24091;DHT22;12272;52.426;17.100;2023-05-03T18:45:06;9.30;76.60
24091;DHT22;12272;52.426;17.100;2023-05-03T18:50:08;9.10;86.70
24091;DHT22;12272;52.426;17.100;2023-05-03T18:55:11;8.90;90.00
24091;DHT22;12272;52.426;17.100;2023-05-03T19:00:14;8.70;92.10
24091;DHT22;12272;52.426;17.100;2023-05-03T19:05:19;8.60;91.60
24091;DHT22;12272;52.426;17.100;2023-05-03T19:10:23;8.40;93.00
24091;DHT22;12272;52.426;17.100;2023-05-03T19:15:25;8.20;94.60
24091;DHT22;12272;52.426;17.100;2023-05-03T19:20:28;8.20;95.00
24091;DHT22;12272;52.426;17.100;2023-05-03T19:25:31;7.90;97.30
24091;DHT22;12272;52.426;17.100;2023-05-03T19:30:33;7.70;98.90
24091;DHT22;12272;52.426;17.100;2023-05-03T19:35:37;7.50;99.90
24091;DHT22;12272;52.426;17.100;2023-05-03T19:40:41;7.50;99.90
24091;DHT22;12272;52.426;17.100;2023-05-03T19:45:55;7.20;99.90
24091;DHT22;12272;52.426;17.100;2023-05-03T19:50:58;7.20;99.90
24091;DHT22;12272;52.426;17.100;2023-05-03T19:56:01;7.10;99.90
24091;DHT22;12272;52.426;17.100;2023-05-03T20:01:04;7.30;99.90
24091;DHT22;12272;52.426;17.100;2023-05-03T20:06:07;6.90;99.90
24091;DHT22;12272;52.426;17.100;2023-05-03T20:11:10;6.80;99.90
24091;DHT22;12272;52.426;17.100;2023-05-03T20:16:12;6.90;99.90
24091;DHT22;12272;52.426;17.100;2023-05-03T20:21:15;7.00;99.90
24091;DHT22;12272;52.426;17.100;2023-05-03T20:26:17;6.80;99.90
24091;DHT22;12272;52.426;17.100;2023-05-03T20:31:20;6.70;99.90
24091;DHT22;12272;52.426;17.100;2023-05-03T20:36:22;6.50;99.90
24091;DHT22;12272;52.426;17.100;2023-05-03T20:41:25;6.30;99.90
24091;DHT22;12272;52.426;17.100;2023-05-03T20:46:27;6.20;99.90
24091;DHT22;12272;52.426;17.100;2023-05-03T20:51:30;6.10;99.90
24091;DHT22;12272;52.426;17.100;2023-05-03T20:56:35;6.00;99.90
24091;DHT22;12272;52.426;17.100;2023-05-03T21:01:38;5.90;99.90
24091;DHT22;12272;52.426;17.100;2023-05-03T21:06:42;5.90;99.90
24091;DHT22;12272;52.426;17.100;2023-05-03T21:11:46;5.80;99.90
24091;DHT22;12272;52.426;17.100;2023-05-03T21:16:49;5.80;99.90
24091;DHT22;12272;52.426;17.100;2023-05-03T21:21:51;5.70;99.90
24091;DHT22;12272;52.426;17.100;2023-05-03T21:26:54;5.60;99.90
24091;DHT22;12272;52.426;17.100;2023-05-03T21:31:57;5.70;99.90
24091;DHT22;12272;52.426;17.100;2023-05-03T21:36:59;5.80;99.90
24091;DHT22;12272;52.426;17.100;2023-05-03T21:42:02;5.70;99.90
24091;DHT22;12272;52.426;17.100;2023-05-03T21:47:05;5.40;99.90
24091;DHT22;12272;52.426;17.100;2023-05-03T21:52:08;5.50;99.90
24091;DHT22;12272;52.426;17.100;2023-05-03T21:57:10;5.50;99.90
24091;DHT22;12272;52.426;17.100;2023-05-03T22:02:13;5.40;99.90
24091;DHT22;12272;52.426;17.100;2023-05-03T22:07:15;5.20;99.90
24091;DHT22;12272;52.426;17.100;2023-05-03T22:12:18;5.30;99.90
24091;DHT22;12272;52.426;17.100;2023-05-03T22:17:25;5.20;99.90
24091;DHT22;12272;52.426;17.100;2023-05-03T22:22:28;5.00;99.90
24091;DHT22;12272;52.426;17.100;2023-05-03T22:27:30;5.10;99.90
24091;DHT22;12272;52.426;17.100;2023-05-03T22:32:33;5.40;99.90
24091;DHT22;12272;52.426;17.100;2023-05-03T22:37:35;5.80;99.90
24091;DHT22;12272;52.426;17.100;2023-05-03T22:42:38;5.50;99.90
24091;DHT22;12272;52.426;17.100;2023-05-03T22:47:40;5.30;99.90
24091;DHT22;12272;52.426;17.100;2023-05-03T22:52:44;5.30;99.90
24091;DHT22;12272;52.426;17.100;2023-05-03T22:57:47;5.10;99.90
24091;DHT22;12272;52.426;17.100;2023-05-03T23:02:49;5.20;99.90
24091;DHT22;12272;52.426;17.100;2023-05-03T23:07:52;5.10;99.90
24091;DHT22;12272;52.426;17.100;2023-05-03T23:12:55;5.00;99.90
24091;DHT22;12272;52.426;17.100;2023-05-03T23:23:00;4.50;99.90
24091;DHT22;12272;52.426;17.100;2023-05-03T23:28:03;4.50;99.90
24091;DHT22;12272;52.426;17.100;2023-05-03T23:33:06;4.50;99.90
24091;DHT22;12272;52.426;17.100;2023-05-03T23:38:09;4.60;99.90
24091;DHT22;12272;52.426;17.100;2023-05-03T23:43:11;4.50;99.90
24091;DHT22;12272;52.426;17.100;2023-05-03T23:48:14;4.40;99.90
24091;DHT22;12272;52.426;17.100;2023-05-03T23:53:16;4.40;99.90
24091;DHT22;12272;52.426;17.100;2023-05-03T23:58:19;4.30;99.90
